createdAt,value
2023-05-12T00:00:16.632Z,101764.78
2023-05-12T00:02:43.618Z,101773.03
2023-05-12T00:05:10.613Z,101762.50
2023-05-12T00:07:37.669Z,101767.66
2023-05-12T00:10:04.952Z,101773.88
2023-05-12T00:12:32.468Z,101768.31
2023-05-12T00:14:59.301Z,101767.88
2023-05-12T00:17:28.102Z,101764.97
2023-05-12T00:19:55.135Z,101765.38
2023-05-12T00:22:22.097Z,101772.41
2023-05-12T00:24:49.024Z,101756.28
2023-05-12T00:27:15.996Z,101762.59
2023-05-12T00:29:43.012Z,101765.50
2023-05-12T00:32:09.869Z,101776.88
2023-05-12T00:34:37.080Z,101777.50
2023-05-12T00:37:04.191Z,101780.06
2023-05-12T00:39:38.486Z,101786.28
2023-05-12T00:42:05.774Z,101780.09
2023-05-12T00:44:32.797Z,101786.59
2023-05-12T00:47:00.221Z,101779.97
2023-05-12T00:49:28.052Z,101784.94
2023-05-12T00:51:56.200Z,101779.66
2023-05-12T00:54:23.437Z,101777.31
2023-05-12T00:56:50.238Z,101785.28
2023-05-12T00:59:17.082Z,101786.31
2023-05-12T01:01:44.650Z,101780.91
2023-05-12T01:04:11.727Z,101783.63
2023-05-12T01:06:44.313Z,101790.31
2023-05-12T01:09:11.797Z,101791.66
2023-05-12T01:11:38.679Z,101795.34
2023-05-12T01:14:06.200Z,101791.19
2023-05-12T01:16:41.498Z,101794.53
2023-05-12T01:19:15.363Z,101795.09
2023-05-12T01:21:42.236Z,101796.19
2023-05-12T01:24:10.725Z,101794.59
2023-05-12T01:26:38.056Z,101797.91
2023-05-12T01:29:06.400Z,101796.50
2023-05-12T01:31:33.740Z,101799.47
2023-05-12T01:34:01.014Z,101795.75
2023-05-12T01:36:27.944Z,101798.47
2023-05-12T01:38:55.703Z,101800.44
2023-05-12T01:41:22.772Z,101801.09
2023-05-12T01:43:52.214Z,101802.84
2023-05-12T01:46:19.078Z,101804.28
2023-05-12T01:48:45.952Z,101807.75
2023-05-12T01:51:13.105Z,101803.69
2023-05-12T01:53:40.169Z,101802.25
2023-05-12T01:56:07.167Z,101810.19
2023-05-12T01:58:34.420Z,101804.34
2023-05-12T02:01:01.283Z,101812.44
2023-05-12T02:03:28.330Z,101816.00
2023-05-12T02:05:55.218Z,101816.28
2023-05-12T02:08:22.024Z,101814.13
2023-05-12T02:10:48.826Z,101818.09
2023-05-12T02:13:15.788Z,101820.56
2023-05-12T02:15:42.873Z,101818.66
2023-05-12T02:18:09.745Z,101820.00
2023-05-12T02:20:36.818Z,101836.03
2023-05-12T02:23:03.621Z,101832.28
2023-05-12T02:25:30.408Z,101818.03
2023-05-12T02:27:57.299Z,101830.09
2023-05-12T02:30:24.188Z,101835.09
2023-05-12T02:32:51.201Z,101837.59
2023-05-12T02:35:18.278Z,101839.19
2023-05-12T02:37:45.183Z,101837.84
2023-05-12T02:40:12.534Z,101837.44
2023-05-12T02:42:40.511Z,101836.97
2023-05-12T02:45:08.185Z,101842.88
2023-05-12T02:47:35.103Z,101846.69
2023-05-12T02:50:02.545Z,101842.81
2023-05-12T02:52:29.460Z,101842.69
2023-05-12T02:54:57.198Z,101845.00
2023-05-12T02:57:24.230Z,101838.66
2023-05-12T02:59:51.217Z,101843.28
2023-05-12T03:02:18.198Z,101839.59
2023-05-12T03:04:45.381Z,101838.94
2023-05-12T03:07:12.403Z,101845.88
2023-05-12T03:09:39.360Z,101848.00
2023-05-12T03:12:16.130Z,101849.09
2023-05-12T03:14:43.030Z,101848.53
2023-05-12T03:17:09.833Z,101843.34
2023-05-12T03:19:37.797Z,101850.72
2023-05-12T03:22:07.474Z,101841.19
2023-05-12T03:24:34.955Z,101847.16
2023-05-12T03:27:01.895Z,101851.56
2023-05-12T03:29:28.942Z,101850.53
2023-05-12T03:31:55.860Z,101853.75
2023-05-12T03:34:23.251Z,101858.69
2023-05-12T03:36:50.272Z,101856.03
2023-05-12T03:39:17.253Z,101860.06
2023-05-12T03:41:44.138Z,101857.34
2023-05-12T03:44:12.493Z,101857.34
2023-05-12T03:46:39.618Z,101837.53
2023-05-12T03:49:06.771Z,101854.22
2023-05-12T03:51:33.650Z,101853.34
2023-05-12T03:54:00.609Z,101856.72
2023-05-12T03:56:28.824Z,101857.75
2023-05-12T03:58:55.766Z,101860.44
2023-05-12T04:01:22.771Z,101862.50
2023-05-12T04:03:49.769Z,101854.91
2023-05-12T04:06:16.847Z,101868.81
2023-05-12T04:08:43.751Z,101867.53
2023-05-12T04:11:10.899Z,101866.00
2023-05-12T04:13:37.960Z,101868.75
2023-05-12T04:16:05.528Z,101869.34
2023-05-12T04:18:34.924Z,101873.50
2023-05-12T04:21:02.010Z,101864.91
2023-05-12T04:23:29.768Z,101877.59
2023-05-12T04:25:57.084Z,101881.06
2023-05-12T04:28:24.102Z,101878.91
2023-05-12T04:30:51.018Z,101880.41
2023-05-12T04:33:17.917Z,101883.97
2023-05-12T04:35:44.848Z,101893.41
2023-05-12T04:38:11.805Z,101885.81
2023-05-12T04:40:38.714Z,101894.59
2023-05-12T04:43:05.662Z,101871.88
2023-05-12T04:45:32.471Z,101892.69
2023-05-12T04:47:59.515Z,101899.03
2023-05-12T04:50:27.065Z,101906.13
2023-05-12T04:52:53.794Z,101907.16
2023-05-12T04:55:21.174Z,101904.72
2023-05-12T04:57:48.304Z,101915.03
2023-05-12T05:00:15.713Z,101908.53
2023-05-12T05:02:42.725Z,101898.75
2023-05-12T05:05:10.090Z,101910.38
2023-05-12T05:07:37.410Z,101918.16
2023-05-12T05:10:04.668Z,101912.72
2023-05-12T05:12:31.542Z,101925.59
2023-05-12T05:14:58.464Z,101928.19
2023-05-12T05:17:25.442Z,101931.16
2023-05-12T05:19:58.385Z,101931.59
2023-05-12T05:22:26.507Z,101936.59
2023-05-12T05:24:53.256Z,101939.56
2023-05-12T05:27:20.346Z,101934.19
2023-05-12T05:29:47.552Z,101937.81
2023-05-12T05:32:14.405Z,101946.03
2023-05-12T05:34:41.424Z,101954.72
2023-05-12T05:37:08.922Z,101957.91
2023-05-12T05:39:35.832Z,101963.22
2023-05-12T05:42:02.694Z,101959.44
2023-05-12T05:44:29.576Z,101962.72
2023-05-12T05:46:56.600Z,101961.94
2023-05-12T05:49:23.504Z,101955.50
2023-05-12T05:51:50.469Z,101966.59
2023-05-12T05:54:17.368Z,101967.59
2023-05-12T05:56:44.486Z,101969.72
2023-05-12T05:59:11.612Z,101961.78
2023-05-12T06:01:38.784Z,101972.88
2023-05-12T06:04:06.118Z,101974.03
2023-05-12T06:06:33.036Z,101970.53
2023-05-12T06:09:00.010Z,101976.66
2023-05-12T06:11:28.343Z,101982.13
2023-05-12T06:13:55.223Z,101984.94
2023-05-12T06:16:22.142Z,101982.25
2023-05-12T06:18:49.296Z,101992.31
2023-05-12T06:21:16.149Z,101985.06
2023-05-12T06:23:43.405Z,101994.72
2023-05-12T06:26:10.428Z,101987.16
2023-05-12T06:28:37.381Z,101985.38
2023-05-12T06:31:08.809Z,101990.59
2023-05-12T06:33:35.935Z,101995.22
2023-05-12T06:36:03.099Z,101993.88
2023-05-12T06:38:30.069Z,101994.72
2023-05-12T06:40:56.908Z,101992.72
2023-05-12T06:43:24.045Z,101996.72
2023-05-12T06:45:51.447Z,102001.53
2023-05-12T06:48:18.495Z,101994.28
2023-05-12T06:50:46.189Z,101999.28
2023-05-12T06:53:13.154Z,101996.94
2023-05-12T06:55:40.509Z,101999.25
2023-05-12T06:58:07.588Z,102000.22
2023-05-12T07:00:34.460Z,102004.38
2023-05-12T07:03:01.424Z,102011.63
2023-05-12T07:05:28.545Z,102007.09
2023-05-12T07:07:55.697Z,102003.69
2023-05-12T07:10:22.503Z,102012.09
2023-05-12T07:12:49.515Z,102007.13
2023-05-12T07:15:16.528Z,102010.75
2023-05-12T07:17:43.609Z,102014.53
2023-05-12T07:20:10.721Z,102017.38
2023-05-12T07:22:39.026Z,102016.13
2023-05-12T07:25:07.905Z,102025.19
2023-05-12T07:27:35.384Z,102013.47
2023-05-12T07:30:02.238Z,102020.13
2023-05-12T07:32:29.164Z,102017.25
2023-05-12T07:34:56.640Z,102022.50
2023-05-12T07:37:24.373Z,102013.03
2023-05-12T07:39:51.868Z,102022.63
2023-05-12T07:42:18.797Z,102017.41
2023-05-12T07:44:45.917Z,102023.16
2023-05-12T07:47:12.919Z,102037.31
2023-05-12T07:49:40.242Z,102029.47
2023-05-12T07:52:07.281Z,102026.28
2023-05-12T07:54:34.090Z,102025.91
2023-05-12T07:57:01.169Z,102029.94
2023-05-12T07:59:28.300Z,102027.41
2023-05-12T08:01:55.532Z,102022.56
2023-05-12T08:04:22.499Z,102025.97
2023-05-12T08:06:49.604Z,102027.75
2023-05-12T08:09:16.490Z,102019.41
2023-05-12T08:11:47.061Z,102029.53
2023-05-12T08:14:15.220Z,102019.50
2023-05-12T08:16:45.665Z,102027.28
2023-05-12T08:19:16.282Z,102026.13
2023-05-12T08:21:43.530Z,102024.84
2023-05-12T08:24:10.476Z,102025.28
2023-05-12T08:26:37.338Z,102025.38
2023-05-12T08:29:06.049Z,102024.66
2023-05-12T08:31:33.241Z,102023.22
2023-05-12T08:34:09.896Z,102029.47
2023-05-12T08:36:39.150Z,102028.63
2023-05-12T08:39:06.626Z,102031.50
2023-05-12T08:42:07.397Z,102031.56
2023-05-12T08:44:34.578Z,102030.25
2023-05-12T08:47:04.268Z,102019.25
2023-05-12T08:49:32.878Z,102022.22
2023-05-12T08:52:01.737Z,102020.78
2023-05-12T08:54:29.999Z,102021.59
2023-05-12T08:59:27.796Z,102023.69
2023-05-12T09:01:56.692Z,102034.44
2023-05-12T09:04:23.645Z,102036.19
2023-05-12T09:06:54.330Z,102032.63
2023-05-12T09:09:23.770Z,102032.19
2023-05-12T09:11:56.840Z,102033.31
2023-05-12T09:14:26.121Z,102034.38
2023-05-12T09:17:00.209Z,102028.22
2023-05-12T09:19:27.510Z,102030.63
2023-05-12T09:21:55.016Z,102020.03
2023-05-12T09:24:33.671Z,102015.97
2023-05-12T09:27:00.832Z,102009.56
2023-05-12T09:29:31.925Z,102007.81
2023-05-12T09:32:03.272Z,102018.19
2023-05-12T09:34:41.601Z,102007.97
2023-05-12T09:37:08.901Z,102022.81
2023-05-12T09:39:36.971Z,102011.97
2023-05-12T09:42:04.055Z,102027.63
2023-05-12T09:44:32.347Z,102022.69
2023-05-12T09:47:10.718Z,102009.16
2023-05-12T09:49:38.540Z,102010.47
2023-05-12T09:52:05.734Z,102008.03
2023-05-12T09:54:34.645Z,102003.25
2023-05-12T09:57:05.241Z,101995.28
2023-05-12T09:59:34.565Z,102008.16
2023-05-12T10:02:09.918Z,101990.81
2023-05-12T10:04:47.862Z,102008.28
2023-05-12T10:07:17.071Z,101998.38
2023-05-12T10:09:48.645Z,101983.84
2023-05-12T10:12:16.928Z,101996.06
2023-05-12T10:14:44.320Z,102009.31
2023-05-12T10:17:12.822Z,102004.41
2023-05-12T10:19:42.300Z,101993.09
2023-05-12T10:22:11.564Z,101988.28
2023-05-12T10:24:40.860Z,101990.22
2023-05-12T10:27:08.474Z,101994.22
2023-05-12T10:29:36.007Z,101984.25
2023-05-12T10:32:02.835Z,101986.53
2023-05-12T10:34:38.060Z,101984.41
2023-05-12T10:37:12.752Z,101981.34
2023-05-12T10:39:50.754Z,101985.06
2023-05-12T10:42:26.210Z,101985.28
2023-05-12T10:44:54.892Z,101982.25
2023-05-12T10:47:37.590Z,101977.19
2023-05-12T10:50:05.015Z,101979.09
2023-05-12T10:52:32.369Z,101985.50
2023-05-12T10:55:39.275Z,101979.50
2023-05-12T10:57:52.389Z,101980.19
2023-05-12T11:00:24.936Z,101977.19
2023-05-12T11:02:55.005Z,101976.78
2023-05-12T11:05:34.787Z,101977.97
2023-05-12T11:08:02.541Z,101976.09
2023-05-12T11:10:31.219Z,101991.28
2023-05-12T11:12:59.438Z,101985.75
2023-05-12T11:15:27.707Z,101976.69
2023-05-12T11:17:54.775Z,101972.31
2023-05-12T11:20:27.577Z,101987.78
2023-05-12T11:22:55.867Z,102002.50
2023-05-12T11:25:23.000Z,102002.69
2023-05-12T11:27:53.869Z,102011.56
2023-05-12T11:30:21.620Z,102000.09
2023-05-12T11:32:49.070Z,102006.66
2023-05-12T11:35:18.794Z,102003.38
2023-05-12T11:37:46.608Z,102003.00
2023-05-12T11:40:18.704Z,102000.53
2023-05-12T11:42:48.929Z,101988.31
2023-05-12T11:45:22.998Z,101988.47
2023-05-12T11:47:50.089Z,101992.69
2023-05-12T11:50:24.878Z,101981.81
2023-05-12T11:52:53.254Z,101990.22
2023-05-12T11:55:25.668Z,101986.00
2023-05-12T11:58:03.778Z,101994.09
2023-05-12T12:00:35.610Z,101987.19
2023-05-12T12:03:09.412Z,101999.66
2023-05-12T12:05:36.724Z,101996.00
2023-05-12T12:08:29.763Z,102001.50
2023-05-12T12:11:01.353Z,101999.56
2023-05-12T12:13:29.800Z,101996.06
2023-05-12T12:15:56.728Z,101996.22
2023-05-12T12:18:23.580Z,101996.81
2023-05-12T12:20:50.613Z,102018.31
2023-05-12T12:23:17.469Z,101994.06
2023-05-12T12:25:44.356Z,101997.38
2023-05-12T12:28:11.353Z,101999.22
2023-05-12T12:30:38.805Z,102000.44
2023-05-12T12:33:05.937Z,101994.13
2023-05-12T12:35:32.922Z,101994.78
2023-05-12T12:38:00.629Z,102006.34
2023-05-12T12:40:27.888Z,102003.03
2023-05-12T12:42:54.787Z,101998.56
2023-05-12T12:45:22.107Z,102001.25
2023-05-12T12:47:52.802Z,101993.56
2023-05-12T12:50:20.008Z,101995.19
2023-05-12T12:52:48.271Z,101998.81
2023-05-12T12:55:15.495Z,102001.59
2023-05-12T12:57:42.527Z,101999.13
2023-05-12T13:00:10.276Z,101998.41
2023-05-12T13:02:37.377Z,102006.22
2023-05-12T13:05:06.192Z,101994.47
2023-05-12T13:07:34.092Z,101997.34
2023-05-12T13:10:01.073Z,101997.22
2023-05-12T13:12:29.444Z,101993.19
2023-05-12T13:14:56.347Z,101994.78
2023-05-12T13:17:23.599Z,101998.13
2023-05-12T13:19:50.647Z,101993.31
2023-05-12T13:22:17.445Z,101988.97
2023-05-12T13:24:44.677Z,101999.53
2023-05-12T13:27:11.740Z,101999.47
2023-05-12T13:29:38.907Z,101998.38
2023-05-12T13:32:06.320Z,101993.13
2023-05-12T13:34:33.542Z,101987.16
2023-05-12T13:37:01.031Z,101991.56
2023-05-12T13:39:28.055Z,101963.56
2023-05-12T13:41:55.014Z,101981.75
2023-05-12T13:44:21.842Z,101986.41
2023-05-12T13:46:49.239Z,101988.50
2023-05-12T13:49:16.749Z,101995.66
2023-05-12T13:51:43.716Z,101985.16
2023-05-12T13:54:10.759Z,101985.94
2023-05-12T13:56:38.273Z,101982.31
2023-05-12T13:59:09.618Z,101979.91
2023-05-12T14:01:36.850Z,101983.25
2023-05-12T14:04:04.149Z,101972.78
2023-05-12T14:06:32.432Z,101975.91
2023-05-12T14:08:59.588Z,101981.13
2023-05-12T14:11:26.516Z,101988.44
2023-05-12T14:13:53.787Z,101976.25
2023-05-12T14:16:20.815Z,101976.69
2023-05-12T14:18:48.298Z,101977.06
2023-05-12T14:21:15.286Z,101974.41
2023-05-12T14:23:42.114Z,101978.41
2023-05-12T14:26:08.815Z,101978.63
2023-05-12T14:28:35.978Z,101980.28
2023-05-12T14:31:03.920Z,101970.63
2023-05-12T14:33:31.662Z,101972.81
2023-05-12T14:36:06.539Z,101982.00
2023-05-12T14:38:34.845Z,101954.63
2023-05-12T14:41:01.959Z,101973.88
2023-05-12T14:43:28.890Z,101978.81
2023-05-12T14:45:55.767Z,101979.00
2023-05-12T14:48:23.719Z,101976.28
2023-05-12T14:50:54.291Z,101972.88
2023-05-12T14:53:21.493Z,101980.78
2023-05-12T14:55:52.101Z,101980.19
2023-05-12T14:58:19.546Z,101978.13
2023-05-12T15:00:47.605Z,101991.84
2023-05-12T15:03:15.007Z,101991.53
2023-05-12T15:06:01.785Z,101980.34
2023-05-12T15:08:29.472Z,101983.09
2023-05-12T15:10:56.558Z,101978.41
2023-05-12T15:13:23.425Z,101970.09
2023-05-12T15:15:51.850Z,101976.03
2023-05-12T15:18:21.126Z,101985.00
2023-05-12T15:20:50.536Z,101981.16
2023-05-12T15:23:17.531Z,101982.03
2023-05-12T15:29:32.725Z,101984.97
2023-05-12T15:31:59.668Z,101984.34
2023-05-12T15:34:26.671Z,101988.28
2023-05-12T15:36:53.714Z,101993.75
2023-05-12T15:39:21.808Z,101981.44
2023-05-12T15:41:50.780Z,101991.72
2023-05-12T15:44:17.832Z,101988.72
2023-05-12T15:46:45.070Z,101981.75
2023-05-12T15:49:12.173Z,101990.66
2023-05-12T15:51:39.190Z,101986.44
2023-05-12T15:54:09.126Z,101993.94
2023-05-12T15:56:36.562Z,101991.75
2023-05-12T15:59:05.399Z,101998.13
2023-05-12T16:01:32.531Z,102006.31
2023-05-12T16:04:00.048Z,101984.06
2023-05-12T16:06:27.502Z,102014.69
2023-05-12T16:08:54.443Z,101998.78
2023-05-12T16:11:21.521Z,102003.13
2023-05-12T16:13:48.442Z,101996.63
2023-05-12T16:16:15.560Z,102004.84
2023-05-12T16:18:44.228Z,101991.59
2023-05-12T16:21:13.073Z,102004.63
2023-05-12T16:23:40.283Z,102001.78
2023-05-12T16:26:07.192Z,101999.41
2023-05-12T16:28:34.972Z,101996.84
2023-05-12T16:31:03.647Z,101999.31
2023-05-12T16:33:30.711Z,101999.06
2023-05-12T16:36:00.791Z,102005.63
2023-05-12T16:38:27.920Z,102003.16
2023-05-12T16:40:54.880Z,102009.38
2023-05-12T16:43:21.882Z,102003.72
2023-05-12T16:45:59.317Z,102004.53
2023-05-12T16:48:27.194Z,101995.22
2023-05-12T16:51:07.889Z,101995.09
2023-05-12T16:53:35.695Z,102007.25
2023-05-12T16:56:02.760Z,101991.44
2023-05-12T16:58:33.542Z,102000.22
2023-05-12T17:01:01.457Z,102001.31
2023-05-12T17:03:29.427Z,102002.50
2023-05-12T17:05:56.565Z,102004.31
2023-05-12T17:08:24.697Z,101999.47
2023-05-12T17:10:52.006Z,101999.53
2023-05-12T17:13:19.001Z,102003.06
2023-05-12T17:15:46.173Z,102011.72
2023-05-12T17:18:13.163Z,102005.31
2023-05-12T17:20:40.049Z,102011.06
2023-05-12T17:23:08.460Z,102005.28
2023-05-12T17:25:36.927Z,102009.09
2023-05-12T17:28:04.748Z,102022.06
2023-05-12T17:30:32.450Z,102020.44
2023-05-12T17:32:59.436Z,102018.72
2023-05-12T17:35:26.352Z,102022.59
2023-05-12T17:37:55.684Z,102027.34
2023-05-12T17:40:23.251Z,102024.66
2023-05-12T17:42:50.529Z,102026.78
2023-05-12T17:45:19.312Z,102030.28
2023-05-12T17:47:48.168Z,102035.59
2023-05-12T17:50:15.429Z,102033.59
2023-05-12T17:52:43.608Z,102027.09
2023-05-12T17:55:10.473Z,102037.13
2023-05-12T17:57:38.228Z,102037.00
2023-05-12T18:00:10.678Z,102041.53
2023-05-12T18:02:38.791Z,102036.72
2023-05-12T18:05:06.679Z,102047.91
2023-05-12T18:07:34.045Z,102044.25
2023-05-12T18:10:01.192Z,102056.47
2023-05-12T18:12:28.389Z,102049.41
2023-05-12T18:14:55.513Z,102050.53
2023-05-12T18:17:22.754Z,102060.78
2023-05-12T18:19:50.242Z,102054.44
2023-05-12T18:22:18.565Z,102061.44
2023-05-12T18:24:45.844Z,102058.91
2023-05-12T18:27:13.285Z,102063.09
2023-05-12T18:29:40.414Z,102054.28
2023-05-12T18:32:07.293Z,102077.78
2023-05-12T18:34:34.972Z,102063.44
2023-05-12T18:37:02.258Z,102067.53
2023-05-12T18:39:29.188Z,102070.34
2023-05-12T18:41:56.310Z,102070.38
2023-05-12T18:44:23.493Z,102064.75
2023-05-12T18:46:51.047Z,102066.75
2023-05-12T18:49:18.276Z,102074.78
2023-05-12T18:51:45.222Z,102083.09
2023-05-12T18:54:12.323Z,102056.19
2023-05-12T18:56:39.168Z,102090.44
2023-05-12T18:59:06.214Z,102085.47
2023-05-12T19:01:34.037Z,102086.16
2023-05-12T19:04:01.048Z,102091.28
2023-05-12T19:06:28.294Z,102093.50
2023-05-12T19:08:55.222Z,102075.78
2023-05-12T19:11:22.493Z,102103.94
2023-05-12T19:13:51.085Z,102099.38
2023-05-12T19:16:18.427Z,102096.84
2023-05-12T19:18:46.247Z,102102.19
2023-05-12T19:21:13.680Z,102104.69
2023-05-12T19:23:40.819Z,102106.34
2023-05-12T19:26:09.244Z,102108.97
2023-05-12T19:28:36.594Z,102110.16
2023-05-12T19:31:03.731Z,102101.88
2023-05-12T19:33:32.288Z,102105.00
2023-05-12T19:35:59.565Z,102106.31
2023-05-12T19:38:26.501Z,102114.09
2023-05-12T19:40:53.492Z,102111.44
2023-05-12T19:43:20.518Z,102105.31
2023-05-12T19:45:47.811Z,102115.53
2023-05-12T19:48:15.285Z,102115.53
2023-05-12T19:50:42.206Z,102109.75
2023-05-12T19:53:09.264Z,102114.19
2023-05-12T19:55:36.772Z,102110.63
2023-05-12T19:58:03.693Z,102123.66
2023-05-12T20:00:30.714Z,102128.78
2023-05-12T20:02:57.852Z,102118.25
2023-05-12T20:05:25.490Z,102126.81
2023-05-12T20:07:52.484Z,102129.53
2023-05-12T20:10:19.589Z,102134.78
2023-05-12T20:12:46.562Z,102145.63
2023-05-12T20:15:13.722Z,102143.06
2023-05-12T20:17:40.884Z,102142.75
2023-05-12T20:20:08.524Z,102144.09
2023-05-12T20:22:35.608Z,102145.78
2023-05-12T20:25:04.697Z,102143.94
2023-05-12T20:27:32.940Z,102130.72
2023-05-12T20:30:00.238Z,102153.66
2023-05-12T20:32:27.300Z,102140.63
2023-05-12T20:34:54.330Z,102153.41
2023-05-12T20:37:21.329Z,102157.22
2023-05-12T20:39:48.422Z,102154.13
2023-05-12T20:42:15.285Z,102165.31
2023-05-12T20:44:42.804Z,102169.19
2023-05-12T20:47:10.472Z,102166.91
2023-05-12T20:49:37.450Z,102175.41
2023-05-12T20:52:05.113Z,102164.34
2023-05-12T20:54:32.296Z,102174.69
2023-05-12T20:56:59.464Z,102172.66
2023-05-12T20:59:26.299Z,102175.41
2023-05-12T21:01:53.370Z,102173.06
2023-05-12T21:04:20.506Z,102168.72
2023-05-12T21:06:47.581Z,102178.03
2023-05-12T21:09:14.502Z,102156.31
2023-05-12T21:11:41.815Z,102182.81
2023-05-12T21:14:09.068Z,102177.38
2023-05-12T21:16:36.469Z,102186.59
2023-05-12T21:19:03.459Z,102178.22
2023-05-12T21:21:30.296Z,102184.84
2023-05-12T21:23:57.194Z,102184.31
2023-05-12T21:26:23.984Z,102188.53
2023-05-12T21:28:51.013Z,102187.00
2023-05-12T21:31:18.162Z,102182.72
2023-05-12T21:33:45.193Z,102189.88
2023-05-12T21:36:12.331Z,102190.06
2023-05-12T21:38:39.144Z,102196.69
2023-05-12T21:41:06.262Z,102199.00
2023-05-12T21:43:32.973Z,102186.66
2023-05-12T21:46:04.316Z,102199.56
2023-05-12T21:48:32.455Z,102197.16
2023-05-12T21:51:01.045Z,102203.50
2023-05-12T21:53:28.877Z,102207.38
2023-05-12T21:55:56.007Z,102202.78
2023-05-12T21:58:23.859Z,102200.50
2023-05-12T22:00:54.046Z,102200.50
2023-05-12T22:03:22.159Z,102195.59
2023-05-12T22:05:49.188Z,102199.47
2023-05-12T22:08:16.785Z,102193.81
2023-05-12T22:10:43.764Z,102203.09
2023-05-12T22:13:10.641Z,102198.56
2023-05-12T22:15:37.512Z,102206.56
2023-05-12T22:18:04.608Z,102200.66
2023-05-12T22:20:31.707Z,102187.69
2023-05-12T22:22:58.734Z,102201.50
2023-05-12T22:25:25.934Z,102207.34
2023-05-12T22:27:52.892Z,102208.16
2023-05-12T22:30:20.648Z,102211.88
2023-05-12T22:32:48.124Z,102215.16
2023-05-12T22:35:15.251Z,102217.09
2023-05-12T22:37:42.414Z,102219.94
2023-05-12T22:40:09.864Z,102209.47
2023-05-12T22:42:36.849Z,102198.13
2023-05-12T22:45:05.032Z,102221.03
2023-05-12T22:47:32.554Z,102207.66
2023-05-12T22:49:59.965Z,102217.47
2023-05-12T22:52:27.385Z,102217.69
2023-05-12T22:54:55.318Z,102215.00
2023-05-12T22:57:22.497Z,102215.19
2023-05-12T22:59:49.473Z,102223.88
2023-05-12T23:02:16.629Z,102213.38
2023-05-12T23:04:44.229Z,102229.22
2023-05-12T23:07:11.178Z,102227.16
2023-05-12T23:09:38.283Z,102223.91
2023-05-12T23:12:05.941Z,102227.47
2023-05-12T23:14:33.012Z,102223.31
2023-05-12T23:17:00.227Z,102220.81
2023-05-12T23:19:27.199Z,102208.03
2023-05-12T23:21:54.259Z,102224.47
2023-05-12T23:24:21.952Z,102223.47
2023-05-12T23:26:49.703Z,102223.31
2023-05-12T23:29:16.912Z,102222.47
2023-05-12T23:31:43.840Z,102220.06
2023-05-12T23:34:10.784Z,102204.28
2023-05-12T23:36:37.772Z,102218.75
2023-05-12T23:39:04.744Z,102226.00
2023-05-12T23:41:32.073Z,102224.97
2023-05-12T23:43:59.155Z,102226.31
2023-05-12T23:46:26.276Z,102225.53
2023-05-12T23:48:56.512Z,102219.16
2023-05-12T23:51:24.192Z,102227.25
2023-05-12T23:53:52.125Z,102228.38
2023-05-12T23:56:18.872Z,102218.59
2023-05-12T23:58:47.193Z,102224.47
